KABE/ABE METAR and TAF weather

Enter ICAO airport designator
Station Type Date Time Source
KABE METAR 2018/10/16 13:51 UTC NOAA

KABE 161351Z 30010KT 10SM CLR 08/M01 A3021 RMK AO2 SLP231 T00831011


Station Type Date Time Source
KABE Decoded METAR 2018/10/16 13:51 UTC NOAA

LEHIGH VALLEY INTERNATIONAL AIRPORT, PA, United States (KABE) 40-39N 075-27W 114M
Oct 16, 2018 - 09:51 AM EDT / 2018.10.16 1351 UTC
Wind: from the WNW (300 degrees) at 12 MPH (10 KT):0
Visibility: 10 mile(s):0
Sky conditions: clear
Temperature: 46.9 F (8.3 C)
Dew Point: 30.0 F (-1.1 C)
Relative Humidity: 51%
Pressure (altimeter): 30.21 in. Hg (1023 hPa)
ob: KABE 161351Z 30010KT 10SM CLR 08/M01 A3021 RMK AO2 SLP231 T00831011
cycle: 14

Station Type Date Time Source
KABE TAF 2018/10/16 12:36 UTC NOAA

TAF KABE 161135Z 1612/1712 30008KT P6SM BKN250
FM161600 27006KT P6SM FEW250
FM162200 24007KT P6SM FEW250
FM171100 VRB04KT P6SM FEW250


Example: see airport list